Time;durP1;ratioP1;P1;durP2;ratioP2;P2;SDS_P1;SDS_P2;PMS_P1;PMS_P2;Temp;Humidity;BMP_temperature;BMP_pressure;BME280_temperature;BME280_humidity;BME280_pressure;Samples;Min_cycle;Max_cycle;Signal;HPM_P1;HPM_P2
2021/09/22 00:02:26;;;;;;;2.27;2.07;;;21.90;52.50;;;;;;5070048;28;20232;-65
2021/09/22 00:04:58;;;;;;;3.03;2.67;;;21.80;52.50;;;;;;5052925;28;20707;-65
2021/09/22 00:07:29;;;;;;;2.43;2.23;;;21.90;52.50;;;;;;5067423;28;20221;-65
2021/09/22 00:10:00;;;;;;;2.57;2.37;;;21.90;52.50;;;;;;5055461;28;20773;-65
2021/09/22 00:12:29;;;;;;;2.93;2.60;;;21.80;52.50;;;;;;5067327;28;20227;-65
2021/09/22 00:15:01;;;;;;;2.90;2.70;;;21.80;52.50;;;;;;5060827;28;20194;-65
2021/09/22 00:17:33;;;;;;;2.90;2.37;;;21.80;52.60;;;;;;5032936;28;20202;-65
2021/09/22 00:20:03;;;;;;;2.50;2.30;;;21.80;52.60;;;;;;5059178;28;20202;-65
2021/09/22 00:22:35;;;;;;;2.53;2.30;;;21.80;52.60;;;;;;5064823;28;20213;-65
2021/09/22 00:25:06;;;;;;;3.30;2.37;;;21.80;52.60;;;;;;5068587;28;20202;-65
2021/09/22 00:27:37;;;;;;;2.50;2.30;;;21.80;52.60;;;;;;5070356;28;20232;-65
2021/09/22 00:30:09;;;;;;;2.93;2.63;;;21.80;52.60;;;;;;5069329;28;20220;-65
2021/09/22 00:32:41;;;;;;;3.10;2.60;;;21.80;52.70;;;;;;5060731;28;20663;-65
2021/09/22 00:35:10;;;;;;;3.27;2.73;;;21.80;52.70;;;;;;5035268;28;20220;-65
2021/09/22 00:37:47;;;;;;;2.30;2.10;;;21.80;52.70;;;;;;5049735;28;20221;-65
2021/09/22 00:40:22;;;;;;;2.70;2.50;;;21.80;52.70;;;;;;5074376;28;20196;-65
2021/09/22 00:42:58;;;;;;;2.83;2.60;;;21.80;52.70;;;;;;5078442;28;20262;-65
2021/09/22 00:45:27;;;;;;;2.80;2.50;;;21.80;52.80;;;;;;5089673;28;20208;-65
2021/09/22 00:47:58;;;;;;;2.50;2.30;;;21.80;52.80;;;;;;5090947;28;20725;-66
2021/09/22 00:50:28;;;;;;;3.00;2.70;;;21.70;52.80;;;;;;5088734;28;20197;-66
2021/09/22 00:53:00;;;;;;;2.50;2.30;;;21.70;52.80;;;;;;5081301;28;20208;-66
2021/09/22 00:55:30;;;;;;;3.10;2.47;;;21.70;52.80;;;;;;5089218;28;20686;-65
2021/09/22 00:58:17;;;;;;;2.43;2.23;;;21.70;52.80;;;;;;5086519;28;20235;-65
2021/09/22 01:00:49;;;;;;;2.60;2.40;;;21.70;52.90;;;;;;5092574;28;20228;-65
2021/09/22 01:03:19;;;;;;;2.40;2.20;;;21.70;52.80;;;;;;5087381;28;20293;-65
2021/09/22 01:05:55;;;;;;;2.73;2.40;;;21.70;52.90;;;;;;5076285;28;20231;-66
2021/09/22 01:08:36;;;;;;;2.90;2.60;;;21.70;52.90;;;;;;5088556;28;20247;-65
2021/09/22 01:11:12;;;;;;;3.03;2.57;;;21.70;52.90;;;;;;5087074;28;20204;-66
2021/09/22 01:13:43;;;;;;;3.50;2.20;;;21.70;52.90;;;;;;5085086;28;20582;-66
2021/09/22 01:16:15;;;;;;;3.03;2.20;;;21.70;52.90;;;;;;5076587;28;20197;-66
2021/09/22 01:18:46;;;;;;;2.63;2.43;;;21.70;52.90;;;;;;5091051;28;20209;-66
2021/09/22 01:21:21;;;;;;;3.00;2.70;;;21.70;53.00;;;;;;5091074;28;20196;-65
2021/09/22 01:23:52;;;;;;;2.47;2.27;;;21.70;53.00;;;;;;5082264;28;20210;-65
2021/09/22 01:26:23;;;;;;;2.40;2.17;;;21.70;53.10;;;;;;5067153;28;20743;-65
2021/09/22 01:28:51;;;;;;;2.70;2.50;;;21.70;53.10;;;;;;5083275;28;20218;-65
2021/09/22 01:31:19;;;;;;;2.67;2.47;;;21.60;53.00;;;;;;5079549;28;20201;-65
2021/09/22 01:33:52;;;;;;;2.70;2.33;;;21.70;53.00;;;;;;5081273;28;20194;-65
2021/09/22 01:36:25;;;;;;;2.73;2.53;;;21.70;53.10;;;;;;5081874;28;20196;-66
2021/09/22 01:38:54;;;;;;;2.80;2.50;;;21.60;53.00;;;;;;5091373;28;20247;-66
2021/09/22 01:41:24;;;;;;;3.23;2.70;;;21.70;53.10;;;;;;5071545;28;20220;-65
2021/09/22 01:43:55;;;;;;;2.90;2.23;;;21.70;53.10;;;;;;5076700;28;20308;-65
2021/09/22 01:46:26;;;;;;;2.60;2.40;;;21.60;53.10;;;;;;5086173;28;20201;-65
2021/09/22 01:48:56;;;;;;;2.60;2.40;;;21.60;53.10;;;;;;5080684;28;20661;-65
2021/09/22 01:51:26;;;;;;;3.10;2.60;;;21.60;53.10;;;;;;5073023;28;20212;-65
2021/09/22 01:53:56;;;;;;;2.50;2.30;;;21.60;53.10;;;;;;5080309;28;20212;-65
2021/09/22 01:56:26;;;;;;;3.10;2.57;;;21.60;53.10;;;;;;5087751;28;20209;-66
2021/09/22 01:58:56;;;;;;;2.87;2.67;;;21.60;53.10;;;;;;5084263;28;20217;-66
2021/09/22 02:01:27;;;;;;;2.33;2.13;;;21.60;53.20;;;;;;5073437;28;20185;-65
2021/09/22 02:03:55;;;;;;;2.57;2.37;;;21.60;53.10;;;;;;5070861;28;20205;-65
2021/09/22 02:06:25;;;;;;;2.67;2.47;;;21.60;53.30;;;;;;5080766;28;20213;-65
2021/09/22 02:08:56;;;;;;;2.93;2.23;;;21.60;53.20;;;;;;5064337;28;20240;-65
2021/09/22 02:11:25;;;;;;;3.50;2.43;;;21.60;53.30;;;;;;5086128;28;20219;-65
2021/09/22 02:13:55;;;;;;;2.47;2.27;;;21.60;53.20;;;;;;5088782;28;20320;-65
2021/09/22 02:16:26;;;;;;;2.77;2.43;;;21.60;53.20;;;;;;5092283;28;20307;-65
2021/09/22 02:18:56;;;;;;;2.53;2.23;;;21.60;53.20;;;;;;5056672;28;20205;-65
2021/09/22 02:21:26;;;;;;;2.97;2.53;;;21.50;53.20;;;;;;5080023;28;20206;-66
2021/09/22 02:23:57;;;;;;;2.27;2.07;;;21.50;53.20;;;;;;5085894;28;20204;-66
2021/09/22 02:26:27;;;;;;;2.93;2.40;;;21.50;53.30;;;;;;5083668;28;20760;-65
2021/09/22 02:28:58;;;;;;;2.97;2.30;;;21.50;53.20;;;;;;5087328;28;20225;-65
2021/09/22 02:31:26;;;;;;;2.90;2.53;;;21.50;53.80;;;;;;5080747;28;20693;-65
2021/09/22 02:33:57;;;;;;;3.20;2.50;;;21.50;53.30;;;;;;5082462;28;20197;-66
2021/09/22 02:36:28;;;;;;;2.80;2.53;;;21.50;53.20;;;;;;5062495;28;20213;-65
2021/09/22 02:38:57;;;;;;;2.73;2.53;;;21.50;53.30;;;;;;5070492;28;20237;-66
2021/09/22 02:41:28;;;;;;;2.80;2.60;;;21.50;53.30;;;;;;5076118;28;20201;-65
2021/09/22 02:44:00;;;;;;;2.73;2.33;;;21.50;53.30;;;;;;5084301;28;20193;-66
2021/09/22 02:46:31;;;;;;;2.80;2.50;;;21.50;53.90;;;;;;5064275;28;20274;-66
2021/09/22 02:49:00;;;;;;;2.70;2.40;;;21.50;53.30;;;;;;5061937;28;20313;-66
2021/09/22 02:51:32;;;;;;;2.77;2.57;;;21.50;53.30;;;;;;5085749;28;20197;-66
2021/09/22 02:54:03;;;;;;;2.80;2.60;;;21.50;53.30;;;;;;5091890;28;20194;-66
2021/09/22 02:56:32;;;;;;;2.53;2.33;;;21.50;53.30;;;;;;5088909;28;20209;-66
2021/09/22 02:59:03;;;;;;;2.77;2.43;;;21.50;53.30;;;;;;5088414;28;20361;-66
2021/09/22 03:01:34;;;;;;;3.43;2.90;;;21.50;53.40;;;;;;5070085;28;20220;-65
2021/09/22 03:04:05;;;;;;;4.20;2.70;;;21.40;53.30;;;;;;5075934;28;20197;-65
2021/09/22 03:06:36;;;;;;;2.93;2.50;;;21.40;53.30;;;;;;5074082;28;20205;-66
2021/09/22 03:09:09;;;;;;;2.87;2.63;;;21.40;53.30;;;;;;5086618;28;20240;-66
2021/09/22 03:11:39;;;;;;;2.87;2.53;;;21.40;53.30;;;;;;5087810;28;20266;-65
2021/09/22 03:14:09;;;;;;;2.70;2.40;;;21.50;53.40;;;;;;5061692;28;20209;-65
2021/09/22 03:16:40;;;;;;;2.83;2.50;;;21.40;53.40;;;;;;5069549;28;20204;-66
2021/09/22 03:19:16;;;;;;;3.30;2.70;;;21.40;53.40;;;;;;5085472;28;20254;-66
2021/09/22 03:21:46;;;;;;;4.40;2.53;;;21.40;53.40;;;;;;5069069;28;20629;-66
2021/09/22 03:24:15;;;;;;;3.37;2.70;;;21.40;53.40;;;;;;5088283;28;20282;-66
2021/09/22 03:26:44;;;;;;;2.70;2.50;;;21.40;53.40;;;;;;5077246;28;20231;-66
2021/09/22 03:29:16;;;;;;;2.80;2.60;;;21.40;53.40;;;;;;5067258;28;20218;-66
2021/09/22 03:31:44;;;;;;;3.37;2.77;;;21.40;53.40;;;;;;5089543;28;20239;-65
2021/09/22 03:34:14;;;;;;;3.57;2.40;;;21.40;53.40;;;;;;5081346;28;20233;-65
2021/09/22 03:36:45;;;;;;;2.67;2.47;;;21.40;53.40;;;;;;5075239;28;20268;-66
2021/09/22 03:39:15;;;;;;;2.97;2.43;;;21.40;53.40;;;;;;5083191;28;20323;-66
2021/09/22 03:41:47;;;;;;;3.03;2.70;;;21.40;53.50;;;;;;5065773;28;20206;-66
2021/09/22 03:44:16;;;;;;;2.90;2.57;;;21.40;53.50;;;;;;5084632;28;20208;-66
2021/09/22 03:46:45;;;;;;;2.73;2.53;;;21.40;53.50;;;;;;5076970;28;20290;-66
2021/09/22 03:49:15;;;;;;;2.87;2.67;;;21.40;53.40;;;;;;5066048;28;20212;-65
2021/09/22 03:51:46;;;;;;;2.90;2.63;;;21.40;53.50;;;;;;5087743;28;20201;-66
2021/09/22 03:54:16;;;;;;;2.60;2.40;;;21.40;53.50;;;;;;5086857;28;20221;-66
2021/09/22 03:56:48;;;;;;;2.40;2.20;;;21.30;53.40;;;;;;5070994;28;20212;-66
2021/09/22 03:59:15;;;;;;;2.67;2.47;;;21.40;53.50;;;;;;5083570;28;20509;-66
2021/09/22 04:01:58;;;;;;;2.40;2.20;;;21.30;53.40;;;;;;5081906;28;20198;-66
2021/09/22 04:04:30;;;;;;;2.77;2.57;;;21.30;53.50;;;;;;5075852;28;20264;-65
2021/09/22 04:07:01;;;;;;;3.10;2.80;;;21.30;53.40;;;;;;5063968;28;20291;-65
2021/09/22 04:09:32;;;;;;;3.00;2.70;;;21.30;53.40;;;;;;5079556;28;20271;-66
2021/09/22 04:12:07;;;;;;;2.60;2.40;;;21.30;53.40;;;;;;5078376;28;20254;-66
2021/09/22 04:14:36;;;;;;;2.90;2.40;;;21.30;53.50;;;;;;5081283;28;20187;-66
2021/09/22 04:17:08;;;;;;;2.87;2.50;;;21.30;53.40;;;;;;5082239;28;20221;-66
2021/09/22 04:19:40;;;;;;;2.90;2.60;;;21.30;53.40;;;;;;5084850;28;20221;-66
2021/09/22 04:22:08;;;;;;;2.50;2.30;;;21.30;53.50;;;;;;5070044;28;20274;-66
2021/09/22 04:24:39;;;;;;;3.70;2.60;;;21.30;53.40;;;;;;5087965;28;20651;-66
2021/09/22 04:27:11;;;;;;;2.73;2.33;;;21.30;53.40;;;;;;5081738;28;20212;-65
2021/09/22 04:29:42;;;;;;;2.60;2.30;;;21.30;53.40;;;;;;5086444;28;20219;-65
2021/09/22 04:32:12;;;;;;;3.00;2.37;;;21.30;53.40;;;;;;5085691;28;20198;-65
2021/09/22 04:34:41;;;;;;;2.60;2.40;;;21.30;53.40;;;;;;5082351;28;20215;-66
2021/09/22 04:37:09;;;;;;;2.60;2.20;;;21.30;53.40;;;;;;5079763;28;20674;-65
2021/09/22 04:39:39;;;;;;;2.43;2.23;;;21.30;53.40;;;;;;5065819;28;20686;-65
2021/09/22 04:42:10;;;;;;;3.80;2.70;;;21.30;53.40;;;;;;5081112;28;20218;-65
2021/09/22 04:44:38;;;;;;;2.47;2.10;;;21.20;53.40;;;;;;5082465;28;20552;-65
2021/09/22 04:47:09;;;;;;;2.50;2.30;;;21.20;53.30;;;;;;5061847;28;20213;-65
2021/09/22 04:49:37;;;;;;;2.70;2.50;;;21.20;53.30;;;;;;5070385;28;20220;-65
2021/09/22 04:52:06;;;;;;;2.80;2.43;;;21.20;53.30;;;;;;5080580;28;20189;-65
2021/09/22 04:54:38;;;;;;;2.80;2.30;;;21.20;53.30;;;;;;5088362;28;20758;-66
2021/09/22 04:57:08;;;;;;;2.63;2.43;;;21.20;53.30;;;;;;5072612;28;20195;-66
2021/09/22 04:59:38;;;;;;;2.60;2.40;;;21.20;53.30;;;;;;5090499;28;20209;-65
2021/09/22 05:02:05;;;;;;;2.90;2.20;;;21.20;53.30;;;;;;5069856;28;20230;-66
2021/09/22 05:04:39;;;;;;;2.63;2.33;;;21.20;53.30;;;;;;5069679;28;20291;-66
2021/09/22 05:07:09;;;;;;;2.37;2.17;;;21.20;53.80;;;;;;5058311;28;20615;-66
2021/09/22 05:09:41;;;;;;;3.53;2.33;;;21.20;53.30;;;;;;5071060;28;20226;-66
2021/09/22 05:12:08;;;;;;;2.57;2.37;;;21.20;53.30;;;;;;5071400;28;20292;-64
2021/09/22 05:14:39;;;;;;;2.53;2.30;;;21.20;53.30;;;;;;5087609;28;20197;-64
2021/09/22 05:17:11;;;;;;;2.60;2.40;;;21.20;53.20;;;;;;5071079;28;20288;-65
2021/09/22 05:19:50;;;;;;;2.50;2.30;;;21.20;53.30;;;;;;5093563;28;20193;-65
2021/09/22 05:22:21;;;;;;;2.23;2.03;;;21.20;53.20;;;;;;5098207;28;20197;-63
2021/09/22 05:24:51;;;;;;;3.50;2.30;;;21.20;53.20;;;;;;5053604;28;20213;-63
2021/09/22 05:27:22;;;;;;;2.40;2.20;;;21.10;53.20;;;;;;5098759;28;20201;-64
2021/09/22 05:29:50;;;;;;;2.40;2.17;;;21.20;53.20;;;;;;5074116;28;20205;-64
2021/09/22 05:32:22;;;;;;;2.83;2.00;;;21.20;53.20;;;;;;5088834;28;20322;-65
2021/09/22 05:34:54;;;;;;;2.37;2.17;;;21.20;53.20;;;;;;5091902;28;20192;-64
2021/09/22 05:37:29;;;;;;;2.60;2.40;;;21.10;53.20;;;;;;5084348;28;20196;-65
2021/09/22 05:40:00;;;;;;;3.43;2.73;;;21.20;53.20;;;;;;5069795;28;20209;-65
2021/09/22 05:42:29;;;;;;;3.30;2.60;;;21.10;53.10;;;;;;5069049;28;20194;-64
2021/09/22 05:44:58;;;;;;;3.03;2.57;;;21.10;53.10;;;;;;5079658;28;20619;-64
2021/09/22 05:47:28;;;;;;;2.63;2.43;;;21.10;53.10;;;;;;5082650;28;20229;-65
2021/09/22 05:50:03;;;;;;;3.87;2.70;;;21.10;53.10;;;;;;5081626;28;20258;-65
2021/09/22 05:52:33;;;;;;;3.30;2.93;;;21.10;53.10;;;;;;5073650;28;20201;-65
2021/09/22 05:55:02;;;;;;;3.07;2.70;;;21.10;53.00;;;;;;5054906;28;20521;-65
2021/09/22 05:57:33;;;;;;;2.63;2.40;;;21.10;53.00;;;;;;5072566;28;20649;-65
2021/09/22 06:00:06;;;;;;;4.30;2.97;;;21.10;53.00;;;;;;5071222;28;20209;-65
2021/09/22 06:02:34;;;;;;;3.20;2.90;;;21.10;53.00;;;;;;5089747;28;20722;-66
2021/09/22 06:05:09;;;;;;;6.27;3.60;;;21.10;52.90;;;;;;5083191;28;20422;-66
2021/09/22 06:07:36;;;;;;;11.73;4.67;;;21.10;53.60;;;;;;5059876;28;20200;-67
2021/09/22 06:10:09;;;;;;;22.38;7.05;;;21.10;53.10;;;;;;5063425;28;20434;-65
2021/09/22 06:12:38;;;;;;;22.20;8.27;;;21.10;54.80;;;;;;5090656;28;20276;-66
2021/09/22 06:15:08;;;;;;;25.87;9.67;;;21.20;52.70;;;;;;5071742;28;20197;-66
2021/09/22 06:17:37;;;;;;;22.70;9.13;;;21.30;52.00;;;;;;5082476;28;20200;-65
2021/09/22 06:20:09;;;;;;;17.67;8.43;;;21.30;51.40;;;;;;5053255;28;20189;-66
2021/09/22 06:22:44;;;;;;;14.83;7.90;;;21.30;50.70;;;;;;5080049;28;20685;-68
2021/09/22 06:25:16;;;;;;;15.03;8.03;;;21.30;50.50;;;;;;5066270;28;20223;-69
2021/09/22 06:27:48;;;;;;;10.43;7.40;;;21.40;50.00;;;;;;5083312;28;20636;-66
2021/09/22 06:30:17;;;;;;;13.40;7.10;;;21.40;49.90;;;;;;5087837;28;20219;-67
2021/09/22 06:32:49;;;;;;;14.90;7.70;;;21.40;49.70;;;;;;5056751;28;20208;-66
2021/09/22 06:35:18;;;;;;;13.13;7.13;;;21.50;49.60;;;;;;5081683;28;20208;-67
2021/09/22 06:37:49;;;;;;;9.63;7.43;;;21.50;49.30;;;;;;5085391;28;20224;-68
2021/09/22 06:40:22;;;;;;;11.40;7.90;;;21.50;49.20;;;;;;5071460;28;20227;-67
2021/09/22 06:43:05;;;;;;;12.63;7.60;;;21.50;49.00;;;;;;5069248;28;20748;-68
2021/09/22 06:45:37;;;;;;;10.77;8.33;;;21.60;48.90;;;;;;5087674;28;20207;-68
2021/09/22 06:48:07;;;;;;;10.47;7.33;;;21.60;48.70;;;;;;5084549;28;20197;-70
2021/09/22 06:50:38;;;;;;;13.63;8.30;;;21.60;48.80;;;;;;5086427;28;20209;-67
2021/09/22 06:53:10;;;;;;;12.73;9.07;;;21.60;50.70;;;;;;5070177;28;20904;-67
2021/09/22 06:55:39;;;;;;;14.80;7.93;;;21.60;51.70;;;;;;5064725;28;20849;-71
2021/09/22 06:58:09;;;;;;;8.60;7.37;;;21.60;51.70;;;;;;5084122;28;20230;-70
2021/09/22 07:00:41;;;;;;;10.57;7.00;;;21.70;52.00;;;;;;5069133;28;20638;-70
2021/09/22 07:03:15;;;;;;;10.67;7.00;;;21.70;52.00;;;;;;5087930;28;20584;-69
2021/09/22 07:05:47;;;;;;;9.50;7.00;;;21.80;52.00;;;;;;5088007;28;20641;-69
2021/09/22 07:08:17;;;;;;;9.27;6.90;;;21.80;51.90;;;;;;5084979;28;20891;-70
2021/09/22 07:10:47;;;;;;;7.87;6.50;;;21.80;51.70;;;;;;5086057;28;20253;-69
2021/09/22 07:13:15;;;;;;;14.70;7.20;;;21.90;51.60;;;;;;5070460;28;20287;-69
2021/09/22 07:15:48;;;;;;;7.73;6.93;;;21.90;51.50;;;;;;5085402;28;20205;-69
2021/09/22 07:18:18;;;;;;;9.40;6.90;;;22.00;51.40;;;;;;5044803;28;20224;-69
2021/09/22 07:20:52;;;;;;;9.40;6.30;;;22.00;51.20;;;;;;5053196;28;20598;-68
2021/09/22 07:23:27;;;;;;;9.80;6.73;;;22.00;51.10;;;;;;5083488;28;20294;-68
2021/09/22 07:25:56;;;;;;;7.53;6.13;;;22.00;51.00;;;;;;5067262;28;20208;-70
2021/09/22 07:28:28;;;;;;;9.33;6.33;;;22.00;50.90;;;;;;5069131;28;20205;-71
2021/09/22 07:30:57;;;;;;;8.63;6.93;;;22.00;51.10;;;;;;5069721;28;20295;-67
2021/09/22 07:33:27;;;;;;;8.27;6.20;;;22.10;50.90;;;;;;5062656;28;20205;-68
2021/09/22 07:35:55;;;;;;;9.60;7.07;;;22.10;50.70;;;;;;5083370;28;20205;-68
2021/09/22 07:38:39;;;;;;;10.03;7.27;;;22.20;50.70;;;;;;5073004;28;20328;-69
2021/09/22 07:41:11;;;;;;;7.00;6.30;;;22.20;50.60;;;;;;5065456;28;20321;-68
2021/09/22 07:43:39;;;;;;;9.43;6.37;;;22.20;50.60;;;;;;5070390;28;20612;-69
2021/09/22 07:46:09;;;;;;;8.00;6.33;;;22.20;50.50;;;;;;5086190;28;20236;-69
2021/09/22 07:48:40;;;;;;;7.10;6.40;;;22.20;50.30;;;;;;5078679;28;20212;-68
2021/09/22 07:51:11;;;;;;;9.00;6.17;;;22.30;50.20;;;;;;5086324;28;20197;-67
2021/09/22 07:53:43;;;;;;;11.03;7.07;;;22.30;50.20;;;;;;5086999;28;20196;-70
2021/09/22 07:56:15;;;;;;;9.40;7.53;;;22.30;50.70;;;;;;5080374;28;20237;-65
2021/09/22 07:58:46;;;;;;;13.57;8.40;;;22.30;51.10;;;;;;5088753;28;20199;-65
2021/09/22 08:01:15;;;;;;;10.47;8.77;;;22.20;51.80;;;;;;5051685;28;20529;-65
2021/09/22 08:03:49;;;;;;;13.00;8.50;;;22.10;51.90;;;;;;5069660;28;20247;-65
2021/09/22 08:06:20;;;;;;;8.80;7.90;;;22.10;51.70;;;;;;5089984;28;20246;-66
2021/09/22 08:08:50;;;;;;;10.53;8.30;;;22.10;51.90;;;;;;5090142;28;20193;-64
2021/09/22 08:11:20;;;;;;;11.20;8.03;;;22.10;52.70;;;;;;5086353;28;20196;-68
2021/09/22 08:13:49;;;;;;;11.87;8.73;;;22.00;52.20;;;;;;5075588;28;20197;-66
2021/09/22 08:16:19;;;;;;;11.97;9.33;;;22.00;52.30;;;;;;5083500;28;20205;-65
2021/09/22 08:18:50;;;;;;;15.83;8.70;;;22.00;52.60;;;;;;5091608;28;20192;-66
2021/09/22 08:21:20;;;;;;;10.83;8.90;;;22.00;52.50;;;;;;5071638;28;20227;-68
2021/09/22 08:23:50;;;;;;;11.33;9.30;;;22.00;53.30;;;;;;5075261;28;20287;-68
2021/09/22 08:26:23;;;;;;;11.40;9.40;;;22.00;52.90;;;;;;5069851;28;20201;-67
2021/09/22 08:28:53;;;;;;;11.03;9.77;;;22.00;52.50;;;;;;5071247;28;20200;-68
2021/09/22 08:31:27;;;;;;;16.93;9.40;;;22.00;52.80;;;;;;5083728;28;20190;-65
2021/09/22 08:34:00;;;;;;;11.13;9.00;;;21.90;52.90;;;;;;5089757;28;20212;-64
2021/09/22 08:36:31;;;;;;;11.13;9.50;;;22.00;52.90;;;;;;5090366;28;20644;-67
2021/09/22 08:38:59;;;;;;;9.77;8.77;;;21.90;53.00;;;;;;5074557;28;20690;-67
2021/09/22 08:41:30;;;;;;;11.10;9.37;;;22.00;53.20;;;;;;5089466;28;20224;-64
2021/09/22 08:44:04;;;;;;;11.07;9.80;;;21.90;53.20;;;;;;5089699;28;20211;-66
2021/09/22 08:46:36;;;;;;;10.57;9.43;;;22.00;53.30;;;;;;5039597;28;20224;-65
2021/09/22 08:49:08;;;;;;;12.67;8.63;;;21.90;53.30;;;;;;5076278;28;20619;-67
2021/09/22 08:51:40;;;;;;;10.90;8.80;;;21.90;54.10;;;;;;5069941;28;20219;-70
2021/09/22 08:54:13;;;;;;;8.27;7.47;;;22.00;53.70;;;;;;5075391;28;20614;-69
2021/09/22 08:56:45;;;;;;;8.37;7.43;;;22.00;53.70;;;;;;5061645;28;20224;-70
2021/09/22 08:59:18;;;;;;;10.50;7.17;;;22.10;53.70;;;;;;5095116;28;20296;-71
2021/09/22 09:02:09;;;;;;;7.57;6.30;;;22.10;53.50;;;;;;5088045;28;20210;-68
2021/09/22 09:04:45;;;;;;;8.10;6.37;;;22.20;53.70;;;;;;5076251;28;20221;-67
2021/09/22 09:07:14;;;;;;;7.67;5.93;;;22.20;53.40;;;;;;5071140;28;20197;-70
2021/09/22 09:09:45;;;;;;;7.13;5.60;;;22.20;53.40;;;;;;5070985;28;20229;-69
2021/09/22 09:12:22;;;;;;;6.63;5.60;;;22.20;53.40;;;;;;5087800;28;20217;-67
2021/09/22 09:15:00;;;;;;;9.13;6.00;;;22.30;53.30;;;;;;5087775;28;20220;-67
2021/09/22 09:17:47;;;;;;;8.70;5.70;;;22.30;53.10;;;;;;5087437;28;20197;-66
2021/09/22 09:20:23;;;;;;;6.97;5.87;;;22.30;52.90;;;;;;5067246;28;20664;-64
2021/09/22 09:23:07;;;;;;;9.50;6.80;;;22.40;53.50;;;;;;5073456;28;20851;-65
2021/09/22 09:26:01;;;;;;;9.27;6.57;;;22.40;53.90;;;;;;5073634;28;20262;-68
2021/09/22 09:28:47;;;;;;;8.40;6.57;;;22.30;54.10;;;;;;5087134;28;20193;-70
2021/09/22 09:31:23;;;;;;;10.93;7.70;;;22.30;54.00;;;;;;5086820;28;20216;-68
2021/09/22 09:33:56;;;;;;;8.53;7.63;;;22.30;53.20;;;;;;5087903;28;20197;-68
2021/09/22 09:36:42;;;;;;;8.67;7.77;;;22.20;53.20;;;;;;5066554;28;20205;-65
2021/09/22 09:39:20;;;;;;;8.23;6.83;;;22.20;52.10;;;;;;5074048;28;20241;-68
2021/09/22 09:41:52;;;;;;;7.53;6.50;;;22.20;54.00;;;;;;5085482;28;20217;-67
2021/09/22 09:44:31;;;;;;;7.30;6.00;;;22.30;54.00;;;;;;5056162;28;20218;-67
2021/09/22 09:47:13;;;;;;;6.07;5.47;;;22.30;53.90;;;;;;5072775;28;20212;-65
2021/09/22 09:49:51;;;;;;;7.10;5.23;;;22.30;53.30;;;;;;5081997;28;20735;-66
2021/09/22 09:52:23;;;;;;;6.13;5.53;;;22.40;53.60;;;;;;5088056;28;20195;-68
2021/09/22 09:54:55;;;;;;;8.07;6.20;;;22.40;53.60;;;;;;5089393;28;20573;-68
2021/09/22 09:57:26;;;;;;;6.03;5.43;;;22.50;52.50;;;;;;5085833;28;20270;-68
2021/09/22 09:59:55;;;;;;;5.63;5.10;;;22.50;52.70;;;;;;5075702;28;20268;-68
2021/09/22 10:02:33;;;;;;;5.53;4.90;;;22.50;53.10;;;;;;5090270;28;20223;-67
2021/09/22 10:05:13;;;;;;;5.80;5.20;;;22.50;53.00;;;;;;5073094;28;20201;-65
2021/09/22 10:07:48;;;;;;;6.13;5.53;;;22.60;53.10;;;;;;5089849;28;20556;-71
2021/09/22 10:10:33;;;;;;;7.07;5.83;;;22.60;53.50;;;;;;5086119;28;20296;-69
2021/09/22 10:13:06;;;;;;;8.93;6.40;;;22.50;53.10;;;;;;5059045;28;20219;-68
2021/09/22 10:15:38;;;;;;;6.70;5.50;;;22.50;53.50;;;;;;5084704;28;20196;-67
2021/09/22 10:18:09;;;;;;;6.20;5.53;;;22.40;53.50;;;;;;5072849;28;20529;-67
2021/09/22 10:20:47;;;;;;;9.70;6.30;;;22.40;53.40;;;;;;5077128;28;20223;-67
2021/09/22 10:23:24;;;;;;;7.97;6.60;;;22.30;53.20;;;;;;5095253;28;20201;-67
2021/09/22 10:26:08;;;;;;;7.73;6.10;;;22.30;52.90;;;;;;5073653;28;20229;-70
2021/09/22 10:28:56;;;;;;;7.60;6.73;;;22.30;53.30;;;;;;5072518;28;20208;-71
2021/09/22 10:31:35;;;;;;;7.87;6.87;;;22.20;52.70;;;;;;5077385;28;20205;-68
2021/09/22 10:34:23;;;;;;;11.40;7.57;;;22.20;52.90;;;;;;5060301;28;20198;-68
2021/09/22 10:36:54;;;;;;;8.70;7.03;;;22.20;52.70;;;;;;5071223;28;20201;-68
2021/09/22 10:39:43;;;;;;;7.80;7.00;;;22.10;52.60;;;;;;5077205;28;20227;-68
2021/09/22 10:42:25;;;;;;;7.10;6.40;;;22.10;53.00;;;;;;5064590;28;20209;-68
2021/09/22 10:45:16;;;;;;;8.17;6.63;;;22.10;53.20;;;;;;5050719;28;20632;-63
2021/09/22 10:47:47;;;;;;;6.47;5.87;;;22.20;53.60;;;;;;5079038;28;20521;-65
2021/09/22 10:50:42;;;;;;;6.67;5.73;;;22.10;53.60;;;;;;5067574;28;20221;-68
2021/09/22 10:53:47;;;;;;;7.53;5.83;;;22.20;53.70;;;;;;5071388;28;20224;-69
2021/09/22 10:56:26;;;;;;;8.33;4.90;;;22.30;53.70;;;;;;5002925;28;20199;-67
2021/09/22 10:58:59;;;;;;;5.90;5.30;;;22.30;53.70;;;;;;4990958;28;20282;-67
2021/09/22 11:01:45;;;;;;;6.33;5.10;;;22.30;53.50;;;;;;4989718;28;20203;-67
2021/09/22 11:04:20;;;;;;;9.77;5.57;;;22.40;53.40;;;;;;5006712;28;20220;-65
2021/09/22 11:06:51;;;;;;;8.43;6.83;;;22.40;53.50;;;;;;5004057;28;20214;-66
2021/09/22 11:09:30;;;;;;;7.50;5.83;;;22.50;52.50;;;;;;4991258;28;20240;-66
2021/09/22 11:12:06;;;;;;;8.00;5.27;;;22.50;52.30;;;;;;5084016;28;20213;-65
2021/09/22 11:14:58;;;;;;;5.70;5.00;;;22.60;52.50;;;;;;5085662;28;20840;-65
2021/09/22 11:17:29;;;;;;;5.00;4.53;;;22.60;52.70;;;;;;5065279;28;20624;-68
2021/09/22 11:20:04;;;;;;;5.00;4.50;;;22.60;52.40;;;;;;5068608;28;20620;-69
2021/09/22 11:22:38;;;;;;;5.20;4.43;;;22.70;52.40;;;;;;5084926;28;20823;-67
2021/09/22 11:25:14;;;;;;;4.77;4.30;;;22.70;52.50;;;;;;5086124;28;20652;-68
2021/09/22 11:27:49;;;;;;;4.53;4.13;;;22.80;52.60;;;;;;5070425;28;20746;-69
2021/09/22 11:30:20;;;;;;;9.50;5.43;;;22.80;52.40;;;;;;5086839;28;20225;-65
2021/09/22 11:32:51;;;;;;;6.20;5.07;;;22.80;51.90;;;;;;5070626;28;20181;-66
2021/09/22 11:35:24;;;;;;;4.63;4.23;;;22.80;52.10;;;;;;5089040;28;20615;-65
2021/09/22 11:37:58;;;;;;;4.37;3.83;;;22.80;52.30;;;;;;5079452;28;20232;-66
2021/09/22 11:40:35;;;;;;;5.00;4.40;;;22.90;52.20;;;;;;5069562;28;20208;-67
2021/09/22 11:43:17;;;;;;;5.57;5.07;;;22.90;52.10;;;;;;5042989;28;20213;-66
2021/09/22 11:46:00;;;;;;;7.97;6.13;;;23.00;51.50;;;;;;5070107;28;20665;-66
2021/09/22 11:48:43;;;;;;;6.93;5.90;;;23.00;50.20;;;;;;5066401;28;20315;-66
2021/09/22 11:51:14;;;;;;;6.87;5.47;;;23.00;50.10;;;;;;5072549;28;20205;-67
2021/09/22 11:53:44;;;;;;;6.30;5.20;;;23.10;50.10;;;;;;5057297;28;20251;-66
2021/09/22 11:56:16;;;;;;;4.93;4.43;;;23.10;50.50;;;;;;5072808;28;20181;-65
2021/09/22 11:58:46;;;;;;;4.27;3.87;;;23.10;50.60;;;;;;5075719;28;20208;-70
2021/09/22 12:01:15;;;;;;;5.63;4.53;;;23.10;51.70;;;;;;5072124;28;20197;-68
2021/09/22 12:03:52;;;;;;;5.17;4.67;;;23.00;51.60;;;;;;5066626;28;20611;-68
2021/09/22 12:06:22;;;;;;;10.57;5.60;;;23.00;51.80;;;;;;5051373;28;20208;-68
2021/09/22 12:08:53;;;;;;;8.67;5.27;;;23.10;51.40;;;;;;5055001;28;20205;-69
2021/09/22 12:11:23;;;;;;;7.97;4.97;;;23.10;51.10;;;;;;5071669;28;20225;-67
2021/09/22 12:13:56;;;;;;;6.30;5.67;;;23.10;51.50;;;;;;5070089;28;20190;-69
2021/09/22 12:16:29;;;;;;;7.27;5.03;;;23.20;50.90;;;;;;5072049;28;20202;-69
2021/09/22 12:19:00;;;;;;;5.30;4.20;;;23.20;51.00;;;;;;5071681;28;20609;-69
2021/09/22 12:21:30;;;;;;;4.83;3.87;;;23.20;51.20;;;;;;5043207;28;20914;-69
2021/09/22 12:24:05;;;;;;;7.53;6.60;;;23.30;51.60;;;;;;5036288;28;20215;-66
2021/09/22 12:26:54;;;;;;;6.77;5.83;;;23.30;49.80;;;;;;5064157;28;20543;-71
2021/09/22 12:29:24;;;;;;;5.83;5.30;;;23.30;48.40;;;;;;5053599;28;20206;-72
2021/09/22 12:32:04;;;;;;;5.43;4.63;;;23.40;49.80;;;;;;5066790;28;20256;-68
2021/09/22 12:34:43;;;;;;;7.67;5.93;;;23.40;49.80;;;;;;5070644;28;20201;-69
2021/09/22 12:37:23;;;;;;;5.67;4.87;;;23.40;49.20;;;;;;5059065;28;20207;-69
2021/09/22 12:40:06;;;;;;;5.17;4.20;;;23.40;50.00;;;;;;5070889;28;20221;-70
2021/09/22 12:42:47;;;;;;;4.03;3.63;;;23.40;50.50;;;;;;5045409;28;20240;-71
2021/09/22 12:45:34;;;;;;;5.30;4.20;;;23.40;50.90;;;;;;5092990;28;20195;-70
2021/09/22 12:48:08;;;;;;;5.20;4.10;;;23.50;51.10;;;;;;5087641;28;20227;-69
2021/09/22 12:50:42;;;;;;;4.73;3.50;;;23.50;51.10;;;;;;5086180;28;20255;-66
2021/09/22 12:53:33;;;;;;;5.47;4.67;;;23.50;51.20;;;;;;5068266;28;20212;-67
2021/09/22 12:56:20;;;;;;;5.20;4.70;;;23.50;50.60;;;;;;5086836;28;20220;-67
2021/09/22 12:58:48;;;;;;;5.20;4.70;;;23.60;50.20;;;;;;5083591;28;20259;-69
2021/09/22 13:01:20;;;;;;;6.13;5.40;;;23.60;50.30;;;;;;5066853;28;20701;-67
2021/09/22 13:03:59;;;;;;;5.37;4.70;;;23.60;49.50;;;;;;5067080;28;20345;-66
2021/09/22 13:06:34;;;;;;;8.90;6.00;;;23.70;49.90;;;;;;5086298;28;20569;-65
2021/09/22 13:09:09;;;;;;;6.27;5.30;;;23.70;49.00;;;;;;5086790;28;20197;-70
2021/09/22 13:11:46;;;;;;;7.60;4.80;;;23.70;49.20;;;;;;5080656;28;20232;-67
2021/09/22 13:14:19;;;;;;;8.87;6.10;;;23.70;49.90;;;;;;5087594;28;20644;-69
2021/09/22 13:19:28;;;;;;;4.47;4.07;;;23.80;50.00;;;;;;5085765;28;20288;-66